Maimiti — PBIJ — position and weather

sailwx.info

Track history (hours):
 
Tides and Currents Weather Stations Pressure Air Temp Water Temp Dewpoint Dewpoint Depression Visibility Wind Speed Wind Dir Waves Ship Positions

Maimiti

Last reported at 2016-Sep-27 14:33 UTC. Time now 2016-Sep-29 16:58 UTC.
Position N 54°29' E 013°35'.

Length 35 m; draft 6.8 m.

Type: Tug. MMSI: 244850959.

Date/timePositionNaut miles runAvg speedWind from/ knotsBaromVisibWave heightAir tempDewpointWater temp
2016-Sep-27 14:33N 54°29' E 013°35'1 0.6
2016-Sep-27 13:34N 54°28' E 013°36'14 4.6
2016-Sep-27 10:33N 54°38' E 013°53'16 1.6
2016-Sep-27 00:30N 54°52' E 014°07'0 0.0
2016-Sep-26 20:34N 54°52' E 014°07'0 0.0
2016-Sep-26 19:33N 54°52' E 014°07'0 0.0
2016-Sep-26 15:33N 54°52' E 014°07'0 0.0
2016-Sep-26 13:34N 54°52' E 014°07'0 0.1
2016-Sep-26 11:33N 54°51' E 014°07'29 3.2
2016-Sep-26 02:34N 54°29' E 013°36'0 0.0
2016-Sep-26 01:34N 54°29' E 013°36'0 0.0
2016-Sep-26 00:34N 54°29' E 013°36'0 0.0
2016-Sep-25 21:34N 54°29' E 013°36'10 1.1
2016-Sep-25 12:08N 54°36' E 013°49'11 5.9
2016-Sep-25 10:21N 54°29' E 013°36'7 0.2
2016-Sep-23 17:27N 54°33' E 013°44'1411.1
2016-Sep-23 16:10N 54°44' E 014°01'610.4
2016-Sep-23 15:33N 54°49' E 014°08'3 0.3
2016-Sep-23 06:14N 54°51' E 014°06'0 0.0
2016-Sep-22 20:24N 54°52' E 014°06'0 0.0
2016-Sep-22 12:30N 54°52' E 014°06'1 0.1
2016-Sep-22 04:31N 54°51' E 014°06'0 0.0
2016-Sep-21 02:33N 54°51' E 014°06'0 0.0
2016-Sep-20 14:20N 54°51' E 014°06'0 0.0
2016-Sep-20 10:32N 54°51' E 014°06'0 0.0
2016-Sep-20 08:32N 54°51' E 014°06'0 0.0
2016-Sep-20 07:32N 54°51' E 014°06'0 0.0
2016-Sep-20 06:20N 54°51' E 014°06'0 0.0
2016-Sep-20 02:33N 54°51' E 014°06'0 0.0
2016-Sep-19 23:31N 54°51' E 014°06'1 0.1
2016-Sep-19 16:33N 54°51' E 014°06'0 0.1
2016-Sep-19 14:33N 54°51' E 014°06'1 0.6
2016-Sep-19 13:28N 54°52' E 014°06'3 2.0
2016-Sep-19 12:05N 54°49' E 014°05'1 2.5
2016-Sep-19 11:33N 54°48' E 014°05'  
Track history (hours):
 
Tides and Currents Weather Stations Pressure Air Temp Water Temp Dewpoint Dewpoint Depression Visibility Wind Speed Wind Dir Waves Ship Positions

Maimiti

Last reported at 2016-Sep-27 14:33 UTC. Time now 2016-Sep-29 16:58 UTC.
Position N 54°29' E 013°35'.

Length 35 m; draft 6.8 m.

Type: Tug. MMSI: 244850959.

Date/timePositionNaut miles runAvg speedWind from/ knotsBaromVisibWave heightAir tempDewpointWater temp
2016-Sep-27 14:33N 54°29' E 013°35'1 0.6
2016-Sep-27 13:34N 54°28' E 013°36'14 4.6
2016-Sep-27 10:33N 54°38' E 013°53'16 1.6
2016-Sep-27 00:30N 54°52' E 014°07'0 0.0
2016-Sep-26 20:34N 54°52' E 014°07'0 0.0
2016-Sep-26 19:33N 54°52' E 014°07'0 0.0
2016-Sep-26 15:33N 54°52' E 014°07'0 0.0
2016-Sep-26 13:34N 54°52' E 014°07'0 0.1
2016-Sep-26 11:33N 54°51' E 014°07'29 3.2
2016-Sep-26 02:34N 54°29' E 013°36'0 0.0
2016-Sep-26 01:34N 54°29' E 013°36'0 0.0
2016-Sep-26 00:34N 54°29' E 013°36'0 0.0
2016-Sep-25 21:34N 54°29' E 013°36'10 1.1
2016-Sep-25 12:08N 54°36' E 013°49'11 5.9
2016-Sep-25 10:21N 54°29' E 013°36'7 0.2
2016-Sep-23 17:27N 54°33' E 013°44'1411.1
2016-Sep-23 16:10N 54°44' E 014°01'610.4
2016-Sep-23 15:33N 54°49' E 014°08'3 0.3
2016-Sep-23 06:14N 54°51' E 014°06'0 0.0
2016-Sep-22 20:24N 54°52' E 014°06'0 0.0
2016-Sep-22 12:30N 54°52' E 014°06'1 0.1
2016-Sep-22 04:31N 54°51' E 014°06'0 0.0
2016-Sep-21 02:33N 54°51' E 014°06'0 0.0
2016-Sep-20 14:20N 54°51' E 014°06'0 0.0
2016-Sep-20 10:32N 54°51' E 014°06'0 0.0
2016-Sep-20 08:32N 54°51' E 014°06'0 0.0
2016-Sep-20 07:32N 54°51' E 014°06'0 0.0
2016-Sep-20 06:20N 54°51' E 014°06'0 0.0
2016-Sep-20 02:33N 54°51' E 014°06'0 0.0
2016-Sep-19 23:31N 54°51' E 014°06'1 0.1
2016-Sep-19 16:33N 54°51' E 014°06'0 0.1
2016-Sep-19 14:33N 54°51' E 014°06'1 0.6
2016-Sep-19 13:28N 54°52' E 014°06'3 2.0
2016-Sep-19 12:05N 54°49' E 014°05'1 2.5
2016-Sep-19 11:33N 54°48' E 014°05'  

Dump ship's entire track history